Arena, Wisconsin
Current Conditions -  °F | °C
As of 1:56 PM on Wednesday 28 Jan 2015 (Local Time) from KLNR Reporting Station
Clear Clear  
Wind Chill: 23°   Ceiling: Unl
Heat Index: 34°   Visibility: 10mi
Dew Point: 20°   Wind: 17mph
Humidity: 56%   Direction: 140°SE
Pressure: 30"   Gusts: 22mph
Location:  43.17°N, 89.91°W
Report Text: KLNR 281956Z AUTO 14015G19KT 10SM CLR 01/M07 A3000 RMK AO2 SLP161 T00111067
Loading
Personal Weather Stations






























Interactive Weather Map New forecast layout! Learn more

10-Day Weather Forecast

Advertisements
Track Severe Weather on mobile